createdAt,value
2019-03-24T00:00:52.026Z,69.57
2019-03-24T00:03:21.407Z,56.07
2019-03-24T00:05:49.808Z,55.70
2019-03-24T00:08:18.524Z,61.47
2019-03-24T00:10:46.950Z,52.87
2019-03-24T00:13:15.353Z,61.83
2019-03-24T00:15:44.088Z,79.27
2019-03-24T00:18:12.618Z,88.97
2019-03-24T00:20:41.359Z,79.20
2019-03-24T00:23:09.759Z,56.67
2019-03-24T00:25:38.176Z,61.80
2019-03-24T00:28:06.917Z,67.83
2019-03-24T00:30:35.607Z,56.83
2019-03-24T00:33:04.040Z,56.57
2019-03-24T00:35:32.443Z,67.30
2019-03-24T00:38:00.842Z,53.57
2019-03-24T00:40:30.299Z,64.97
2019-03-24T00:42:58.695Z,60.80
2019-03-24T00:45:36.513Z,48.53
2019-03-24T00:47:57.296Z,62.07
2019-03-24T00:50:25.689Z,56.43
2019-03-24T00:52:54.098Z,64.07
2019-03-24T00:55:22.882Z,59.67
2019-03-24T00:57:51.277Z,54.53
2019-03-24T01:00:23.066Z,57.90
2019-03-24T01:02:51.526Z,57.37
2019-03-24T01:05:20.218Z,55.47
2019-03-24T01:07:48.611Z,52.60
2019-03-24T01:10:17.444Z,56.73
2019-03-24T01:12:45.845Z,60.63
2019-03-24T01:15:14.500Z,67.03
2019-03-24T01:17:42.929Z,54.00
2019-03-24T01:20:11.582Z,55.00
2019-03-24T01:22:39.981Z,61.50
2019-03-24T01:25:08.833Z,55.07
2019-03-24T01:27:37.523Z,55.70
2019-03-24T01:30:07.658Z,57.23
2019-03-24T01:32:36.072Z,58.97
2019-03-24T01:35:06.011Z,68.10
2019-03-24T01:37:34.414Z,60.83
2019-03-24T01:40:03.118Z,52.17
2019-03-24T01:42:31.931Z,52.40
2019-03-24T01:45:00.802Z,55.27
2019-03-24T01:47:29.817Z,55.27
2019-03-24T01:49:58.497Z,58.57
2019-03-24T01:52:26.894Z,57.60
2019-03-24T01:54:55.568Z,55.57
2019-03-24T01:57:25.301Z,56.23
2019-03-24T01:59:53.695Z,58.13
2019-03-24T02:02:22.114Z,61.77
2019-03-24T02:04:50.510Z,61.57
2019-03-24T02:07:18.929Z,62.73
2019-03-24T02:09:47.377Z,53.77
2019-03-24T02:12:16.084Z,54.90
2019-03-24T02:14:44.480Z,56.73
2019-03-24T02:17:13.013Z,55.93
2019-03-24T02:19:41.421Z,53.20
2019-03-24T02:22:10.127Z,56.33
2019-03-24T02:24:38.823Z,60.00
2019-03-24T02:27:07.322Z,58.67
2019-03-24T02:29:35.722Z,55.17
2019-03-24T02:32:04.619Z,54.00
2019-03-24T02:34:33.029Z,61.90
2019-03-24T02:37:01.764Z,52.13
2019-03-24T02:39:30.194Z,58.87
2019-03-24T02:41:58.601Z,49.83
2019-03-24T02:44:27.047Z,54.07
2019-03-24T02:46:55.537Z,55.27
2019-03-24T02:49:24.191Z,58.17
2019-03-24T02:51:52.589Z,56.23
2019-03-24T02:54:21.390Z,52.60
2019-03-24T02:56:49.782Z,53.40
2019-03-24T02:59:18.554Z,68.00
2019-03-24T03:01:46.979Z,54.50
2019-03-24T03:04:15.374Z,49.33
2019-03-24T03:06:44.007Z,49.47
2019-03-24T03:09:12.433Z,52.97
2019-03-24T03:11:40.840Z,54.23
2019-03-24T03:14:09.238Z,51.90
2019-03-24T03:16:39.084Z,49.27
2019-03-24T03:19:07.957Z,48.13
2019-03-24T03:21:36.940Z,55.83
2019-03-24T03:24:05.632Z,52.70
2019-03-24T03:26:34.279Z,48.83
2019-03-24T03:29:02.694Z,48.70
2019-03-24T03:31:31.121Z,57.33
2019-03-24T03:33:59.794Z,50.47
2019-03-24T03:36:28.257Z,48.93
2019-03-24T03:38:56.727Z,61.70
2019-03-24T03:41:25.169Z,57.23
2019-03-24T03:43:53.568Z,58.30
2019-03-24T03:46:22.233Z,48.90
2019-03-24T03:48:50.716Z,51.47
2019-03-24T03:51:19.121Z,55.93
2019-03-24T03:53:47.522Z,54.73
2019-03-24T03:56:16.493Z,65.50
2019-03-24T03:58:44.897Z,61.27
2019-03-24T04:01:13.335Z,62.83
2019-03-24T04:03:41.729Z,58.53
2019-03-24T04:06:10.120Z,57.43
2019-03-24T04:08:38.553Z,64.10
2019-03-24T04:11:07.291Z,58.93
2019-03-24T04:13:35.928Z,52.80
2019-03-24T04:16:04.653Z,59.57
2019-03-24T04:18:33.050Z,54.33
2019-03-24T04:21:03.088Z,50.87
2019-03-24T04:23:31.603Z,60.60
2019-03-24T04:26:00.167Z,52.80
2019-03-24T04:28:28.935Z,57.50
2019-03-24T04:30:57.393Z,54.90
2019-03-24T04:33:25.801Z,53.00
2019-03-24T04:35:54.206Z,55.53
2019-03-24T04:38:22.877Z,51.30
2019-03-24T04:40:51.300Z,65.17
2019-03-24T04:43:19.790Z,58.17
2019-03-24T04:45:49.564Z,58.20
2019-03-24T04:48:17.988Z,52.03
2019-03-24T04:50:46.740Z,48.80
2019-03-24T04:53:15.245Z,55.37
2019-03-24T04:55:43.654Z,57.27
2019-03-24T04:58:12.150Z,56.10
2019-03-24T05:00:40.870Z,53.20
2019-03-24T05:03:09.438Z,59.33
2019-03-24T05:05:39.601Z,50.53
2019-03-24T05:08:09.624Z,45.37
2019-03-24T05:10:38.036Z,47.23
2019-03-24T05:13:06.786Z,49.17
2019-03-24T05:15:35.570Z,52.97
2019-03-24T05:18:04.258Z,52.57
2019-03-24T05:20:32.653Z,49.17
2019-03-24T05:23:01.457Z,56.90
2019-03-24T05:25:29.943Z,53.70
2019-03-24T05:27:58.630Z,55.97
2019-03-24T05:30:27.602Z,64.03
2019-03-24T05:32:56.007Z,62.93
2019-03-24T05:35:24.460Z,77.90
2019-03-24T05:37:53.195Z,68.27
2019-03-24T05:40:21.594Z,57.73
2019-03-24T05:42:50.338Z,58.97
2019-03-24T05:45:19.051Z,60.07
2019-03-24T05:47:47.455Z,53.80
2019-03-24T05:50:16.115Z,53.17
2019-03-24T05:52:44.555Z,53.00
2019-03-24T05:55:13.191Z,57.57
2019-03-24T05:57:41.605Z,55.63
2019-03-24T06:00:10.831Z,55.63
2019-03-24T06:02:39.574Z,54.57
2019-03-24T06:05:09.849Z,74.83
2019-03-24T06:07:38.290Z,54.53
2019-03-24T06:10:07.257Z,68.63
2019-03-24T06:12:35.954Z,63.13
2019-03-24T06:15:07.148Z,66.30
2019-03-24T06:17:35.568Z,56.93
2019-03-24T06:20:05.905Z,53.50
2019-03-24T06:22:34.342Z,65.73
2019-03-24T06:25:02.764Z,76.80
2019-03-24T06:27:31.155Z,68.77
2019-03-24T06:29:59.612Z,64.90
2019-03-24T06:32:28.013Z,67.13
2019-03-24T06:34:56.423Z,66.53
2019-03-24T06:37:25.231Z,61.50
2019-03-24T06:39:54.123Z,66.97
2019-03-24T06:42:22.536Z,60.90
2019-03-24T06:44:50.988Z,58.70
2019-03-24T06:47:19.650Z,67.43
2019-03-24T06:49:48.202Z,65.60
2019-03-24T06:52:16.933Z,66.80
2019-03-24T06:54:45.640Z,68.33
2019-03-24T06:57:14.041Z,68.70
2019-03-24T06:59:42.815Z,66.30
2019-03-24T07:02:11.324Z,63.33
2019-03-24T07:04:39.999Z,66.87
2019-03-24T07:07:09.093Z,71.07
2019-03-24T07:09:37.769Z,70.40
2019-03-24T07:12:06.319Z,69.37
2019-03-24T07:14:34.740Z,64.47
2019-03-24T07:17:03.635Z,70.00
2019-03-24T07:19:32.044Z,64.47
2019-03-24T07:22:00.505Z,67.70
2019-03-24T07:24:28.923Z,64.57
2019-03-24T07:26:57.789Z,77.00
2019-03-24T07:29:26.562Z,79.77
2019-03-24T07:31:54.973Z,66.40
2019-03-24T07:34:23.387Z,72.80
2019-03-24T07:36:51.902Z,62.23
2019-03-24T07:39:20.314Z,71.00
2019-03-24T07:41:48.736Z,66.40
2019-03-24T07:44:17.411Z,61.43
2019-03-24T07:46:45.823Z,70.20
2019-03-24T07:49:14.258Z,57.63
2019-03-24T07:51:42.723Z,66.17
2019-03-24T07:54:11.143Z,58.10
2019-03-24T07:56:39.809Z,70.57
2019-03-24T07:59:08.704Z,65.87
2019-03-24T08:01:37.123Z,53.03
2019-03-24T08:04:06.091Z,65.27
2019-03-24T08:06:35.076Z,57.17
2019-03-24T08:09:05.635Z,59.13
2019-03-24T08:11:34.034Z,65.10
2019-03-24T08:14:02.472Z,64.90
2019-03-24T08:16:31.185Z,57.37
2019-03-24T08:18:59.967Z,55.67
2019-03-24T08:21:28.578Z,57.20
2019-03-24T08:23:56.996Z,55.37
2019-03-24T08:26:25.649Z,56.93
2019-03-24T08:28:54.126Z,58.47
2019-03-24T08:31:22.924Z,59.13
2019-03-24T08:33:51.325Z,53.20
2019-03-24T08:36:20.087Z,61.73
2019-03-24T08:38:48.886Z,54.33
2019-03-24T08:41:17.593Z,60.10
2019-03-24T08:43:46.054Z,57.23
2019-03-24T08:46:14.478Z,57.37
2019-03-24T08:48:43.431Z,62.67
2019-03-24T08:51:12.134Z,46.50
2019-03-24T08:53:40.566Z,51.33
2019-03-24T08:56:08.974Z,48.47
2019-03-24T08:58:37.406Z,58.00
2019-03-24T09:01:05.970Z,47.87
2019-03-24T09:03:34.650Z,53.50
2019-03-24T09:06:03.406Z,51.83
2019-03-24T09:08:32.774Z,46.97
2019-03-24T09:11:01.698Z,58.30
2019-03-24T09:13:30.194Z,59.40
2019-03-24T09:15:58.600Z,53.97
2019-03-24T09:18:27.025Z,51.13
2019-03-24T09:20:55.525Z,49.57
2019-03-24T09:23:23.945Z,42.73
2019-03-24T09:25:52.360Z,48.37
2019-03-24T09:28:20.789Z,51.67
2019-03-24T09:30:49.520Z,48.23
2019-03-24T09:33:18.228Z,55.10
2019-03-24T09:35:47.156Z,53.20
2019-03-24T09:38:15.562Z,51.43
2019-03-24T09:40:43.975Z,44.30
2019-03-24T09:43:12.421Z,48.93
2019-03-24T09:45:40.842Z,50.27
2019-03-24T09:48:09.529Z,46.33
2019-03-24T09:50:38.153Z,45.70
2019-03-24T09:53:06.585Z,45.03
2019-03-24T09:55:35.007Z,52.40
2019-03-24T09:58:03.557Z,46.27
2019-03-24T10:00:31.963Z,43.23
2019-03-24T10:03:00.375Z,48.37
2019-03-24T10:05:28.843Z,45.00
2019-03-24T10:07:57.249Z,45.20
2019-03-24T10:10:26.007Z,42.17
2019-03-24T10:12:54.482Z,48.13
2019-03-24T10:15:23.181Z,48.17
2019-03-24T10:17:51.875Z,48.57
2019-03-24T10:20:20.404Z,48.30
2019-03-24T10:22:48.974Z,44.20
2019-03-24T10:25:17.842Z,46.43
2019-03-24T10:27:46.273Z,40.37
2019-03-24T10:30:15.122Z,43.17
2019-03-24T10:32:43.531Z,47.67
2019-03-24T10:35:12.311Z,41.07
2019-03-24T10:37:40.751Z,44.50
2019-03-24T10:40:10.225Z,39.47
2019-03-24T10:42:40.065Z,47.07
2019-03-24T10:45:09.224Z,44.20
2019-03-24T10:47:37.694Z,45.50
2019-03-24T10:50:10.435Z,43.87
2019-03-24T10:52:39.886Z,44.20
2019-03-24T10:55:10.548Z,41.40
2019-03-24T10:57:39.632Z,40.90
2019-03-24T11:00:11.084Z,42.30
2019-03-24T11:02:39.956Z,38.20
2019-03-24T11:05:09.288Z,39.93
2019-03-24T11:07:37.706Z,43.43
2019-03-24T11:10:08.368Z,45.60
2019-03-24T11:12:36.828Z,45.70
2019-03-24T11:15:08.483Z,51.70
2019-03-24T11:17:37.117Z,42.70
2019-03-24T11:20:08.687Z,44.03
2019-03-24T11:22:37.114Z,43.90
2019-03-24T11:25:08.250Z,44.10
2019-03-24T11:27:37.117Z,42.60
2019-03-24T11:30:11.288Z,43.40
2019-03-24T11:32:40.519Z,45.10
2019-03-24T11:35:09.929Z,40.97
2019-03-24T11:37:38.361Z,43.93
2019-03-24T11:40:10.637Z,49.27
2019-03-24T11:42:40.090Z,39.83
2019-03-24T11:45:10.842Z,45.23
2019-03-24T11:47:39.420Z,44.93
2019-03-24T11:50:09.962Z,43.13
2019-03-24T11:52:38.386Z,43.40
2019-03-24T11:55:10.704Z,43.20
2019-03-24T11:57:40.950Z,43.80
2019-03-24T12:00:12.909Z,43.97
2019-03-24T12:02:41.610Z,41.57
2019-03-24T12:05:10.711Z,46.50
2019-03-24T12:07:39.395Z,37.47
2019-03-24T12:10:09.771Z,43.10
2019-03-24T12:12:38.597Z,50.00
2019-03-24T12:15:07.864Z,48.90
2019-03-24T12:17:36.689Z,52.20
2019-03-24T12:20:08.759Z,43.20
2019-03-24T12:22:37.332Z,46.23
2019-03-24T12:25:07.462Z,41.10
2019-03-24T12:27:36.260Z,39.03
2019-03-24T12:30:09.947Z,35.80
2019-03-24T12:32:38.473Z,38.87
2019-03-24T12:35:08.317Z,37.03
2019-03-24T12:37:37.080Z,39.57
2019-03-24T12:40:10.301Z,34.60
2019-03-24T12:42:39.225Z,31.50
2019-03-24T12:45:10.316Z,32.67
2019-03-24T12:47:38.747Z,37.60
2019-03-24T12:50:10.121Z,33.10
2019-03-24T12:52:38.831Z,36.67
2019-03-24T12:55:07.976Z,34.80
2019-03-24T12:57:36.498Z,32.57
2019-03-24T13:00:13.568Z,32.70
2019-03-24T13:02:42.057Z,35.07
2019-03-24T13:05:11.805Z,33.50
2019-03-24T13:07:40.236Z,35.23
2019-03-24T13:10:09.219Z,33.83
2019-03-24T13:12:37.736Z,34.40
2019-03-24T13:15:08.796Z,30.97
2019-03-24T13:17:37.649Z,30.47
2019-03-24T13:20:07.772Z,32.20
2019-03-24T13:22:37.031Z,33.37
2019-03-24T13:25:09.559Z,31.70
2019-03-24T13:27:38.498Z,35.17
2019-03-24T13:30:08.547Z,32.27
2019-03-24T13:32:37.074Z,31.00
2019-03-24T13:35:05.737Z,31.90
2019-03-24T13:37:34.815Z,33.60
2019-03-24T13:40:03.789Z,30.63
2019-03-24T13:42:33.127Z,33.47
2019-03-24T13:45:01.577Z,34.43
2019-03-24T13:47:30.038Z,38.50
2019-03-24T13:49:58.582Z,34.50
2019-03-24T13:52:27.639Z,38.17
2019-03-24T13:54:56.072Z,32.63
2019-03-24T13:57:24.939Z,31.60
2019-03-24T13:59:53.992Z,28.00
2019-03-24T14:02:22.602Z,29.50
2019-03-24T14:04:51.043Z,27.93
2019-03-24T14:07:19.643Z,32.30
2019-03-24T14:09:48.075Z,28.90
2019-03-24T14:12:17.051Z,29.43
2019-03-24T14:14:45.714Z,28.13
2019-03-24T14:17:14.666Z,34.60
2019-03-24T14:19:43.454Z,32.83
2019-03-24T14:22:12.227Z,29.17
2019-03-24T14:24:40.730Z,30.00
2019-03-24T14:27:09.903Z,30.60
2019-03-24T14:29:38.335Z,35.83
2019-03-24T14:32:06.781Z,32.17
2019-03-24T14:34:35.302Z,35.27
2019-03-24T14:37:04.900Z,35.70
2019-03-24T14:39:33.389Z,30.53
2019-03-24T14:42:02.484Z,27.10
2019-03-24T14:44:31.055Z,28.87
2019-03-24T14:46:59.947Z,29.63
2019-03-24T14:49:28.482Z,26.40
2019-03-24T14:51:57.223Z,27.70
2019-03-24T14:54:25.893Z,25.87
2019-03-24T14:56:54.733Z,30.10
2019-03-24T14:59:24.594Z,30.20
2019-03-24T15:01:53.186Z,30.37
2019-03-24T15:04:22.095Z,25.13
2019-03-24T15:06:50.551Z,31.10
2019-03-24T15:09:19.003Z,27.10
2019-03-24T15:11:47.413Z,24.83
2019-03-24T15:14:16.194Z,26.53
2019-03-24T15:16:44.849Z,22.40
2019-03-24T15:19:13.306Z,21.27
2019-03-24T15:21:42.121Z,19.80
2019-03-24T15:24:10.638Z,17.73
2019-03-24T15:26:39.151Z,16.23
2019-03-24T15:29:07.585Z,15.57
2019-03-24T15:31:36.014Z,12.57
2019-03-24T15:34:04.613Z,12.47
2019-03-24T15:36:33.602Z,12.90
2019-03-24T15:39:02.030Z,14.87
2019-03-24T15:41:32.304Z,14.43
2019-03-24T15:44:00.821Z,17.67
2019-03-24T15:46:29.306Z,17.00
2019-03-24T15:48:57.870Z,22.10
2019-03-24T15:51:26.432Z,22.47
2019-03-24T15:53:55.832Z,20.50
2019-03-24T15:56:25.044Z,17.03
2019-03-24T15:58:53.558Z,18.90
2019-03-24T16:01:22.529Z,22.43
2019-03-24T16:03:50.937Z,18.90
2019-03-24T16:06:19.695Z,18.73
2019-03-24T16:08:48.586Z,17.77
2019-03-24T16:11:17.313Z,17.10
2019-03-24T16:13:45.836Z,20.20
2019-03-24T16:16:15.257Z,19.30
2019-03-24T16:18:43.792Z,24.07
2019-03-24T16:21:12.517Z,18.23
2019-03-24T16:23:41.509Z,24.87
2019-03-24T16:26:10.098Z,19.07
2019-03-24T16:28:39.047Z,22.97
2019-03-24T16:31:07.573Z,18.30
2019-03-24T16:33:36.012Z,17.20
2019-03-24T16:36:04.787Z,21.27
2019-03-24T16:38:33.218Z,21.17
2019-03-24T16:41:01.797Z,18.83
2019-03-24T16:43:30.268Z,20.13
2019-03-24T16:45:59.233Z,21.40
2019-03-24T16:48:36.457Z,19.63
2019-03-24T16:50:58.955Z,20.63
2019-03-24T16:53:27.608Z,22.40
2019-03-24T16:55:56.066Z,17.83
2019-03-24T16:58:24.540Z,18.07
2019-03-24T17:00:52.958Z,17.30
2019-03-24T17:03:21.395Z,21.67
2019-03-24T17:05:49.944Z,21.73
2019-03-24T17:08:18.845Z,20.57
2019-03-24T17:10:47.297Z,20.67
2019-03-24T17:13:16.541Z,23.63
2019-03-24T17:15:44.964Z,23.47
2019-03-24T17:18:13.570Z,21.07
2019-03-24T17:20:43.335Z,23.83
2019-03-24T17:23:12.030Z,23.13
2019-03-24T17:25:40.468Z,23.93
2019-03-24T17:28:09.637Z,26.43
2019-03-24T17:30:38.072Z,27.37
2019-03-24T17:33:06.809Z,25.37
2019-03-24T17:35:35.608Z,26.30
2019-03-24T17:38:04.705Z,28.40
2019-03-24T17:40:38.737Z,26.73
2019-03-24T17:43:04.240Z,23.40
2019-03-24T17:45:32.661Z,26.57
2019-03-24T17:48:01.155Z,27.33
2019-03-24T17:50:29.606Z,27.90
2019-03-24T17:52:58.087Z,28.90
2019-03-24T17:55:27.825Z,30.17
2019-03-24T17:57:56.846Z,31.60
2019-03-24T18:00:39.854Z,30.57
2019-03-24T18:03:08.521Z,32.07
2019-03-24T18:05:37.305Z,34.17
2019-03-24T18:08:05.883Z,37.40
2019-03-24T18:10:34.915Z,34.33
2019-03-24T18:13:03.414Z,30.90
2019-03-24T18:15:31.845Z,32.77
2019-03-24T18:18:00.338Z,34.97
2019-03-24T18:20:36.294Z,38.73
2019-03-24T18:23:05.164Z,36.03
2019-03-24T18:25:34.050Z,34.97
2019-03-24T18:28:02.788Z,37.60
2019-03-24T18:30:32.364Z,40.77
2019-03-24T18:33:01.160Z,39.43
2019-03-24T18:35:29.668Z,34.80
2019-03-24T18:37:58.182Z,35.90
2019-03-24T18:40:26.948Z,33.37
2019-03-24T18:42:56.465Z,40.13
2019-03-24T18:45:25.312Z,38.50
2019-03-24T18:47:53.757Z,36.00
2019-03-24T18:50:22.177Z,37.60
2019-03-24T18:52:52.189Z,35.50
2019-03-24T18:55:20.626Z,38.83
2019-03-24T18:57:49.023Z,38.70
2019-03-24T19:00:19.711Z,33.93
2019-03-24T19:02:48.418Z,35.37
2019-03-24T19:05:17.079Z,35.17
2019-03-24T19:07:45.619Z,31.47
2019-03-24T19:10:15.392Z,36.90
2019-03-24T19:12:44.166Z,30.93
2019-03-24T19:15:15.338Z,30.37
2019-03-24T19:17:45.337Z,33.53
2019-03-24T19:20:14.392Z,35.50
2019-03-24T19:22:44.057Z,31.47
2019-03-24T19:25:12.938Z,28.90
2019-03-24T19:27:41.372Z,32.80
2019-03-24T19:30:13.531Z,29.03
2019-03-24T19:32:42.451Z,24.60
2019-03-24T19:35:11.013Z,25.47
2019-03-24T19:37:40.481Z,26.87
2019-03-24T19:40:29.522Z,24.80
2019-03-24T19:42:57.981Z,21.80
2019-03-24T19:45:27.034Z,28.47
2019-03-24T19:47:56.212Z,20.77
2019-03-24T19:50:24.937Z,24.37
2019-03-24T19:52:53.475Z,19.37
2019-03-24T19:55:22.562Z,20.37
2019-03-24T19:57:51.667Z,19.23
2019-03-24T20:00:20.290Z,16.97
2019-03-24T20:02:48.797Z,18.87
2019-03-24T20:05:17.714Z,15.40
2019-03-24T20:07:48.269Z,15.40
2019-03-24T20:10:16.492Z,12.90
2019-03-24T20:12:44.976Z,18.03
2019-03-24T20:15:14.404Z,17.83
2019-03-24T20:17:42.899Z,11.20
2019-03-24T20:20:11.796Z,20.07
2019-03-24T20:22:40.282Z,15.90
2019-03-24T20:25:09.462Z,12.60
2019-03-24T20:27:37.929Z,9.60
2019-03-24T20:30:09.177Z,12.13
2019-03-24T20:32:38.257Z,12.97
2019-03-24T20:35:08.885Z,11.27
2019-03-24T20:37:37.445Z,15.93
2019-03-24T20:40:07.003Z,11.37
2019-03-24T20:42:35.752Z,12.93
2019-03-24T20:45:06.527Z,8.87
2019-03-24T20:47:34.951Z,13.10
2019-03-24T20:50:04.544Z,13.07
2019-03-24T20:52:33.244Z,10.60
2019-03-24T20:55:01.658Z,12.67
2019-03-24T20:57:30.138Z,10.70
2019-03-24T20:59:59.006Z,12.60
2019-03-24T21:02:27.518Z,10.50
2019-03-24T21:04:55.976Z,8.27
2019-03-24T21:07:24.397Z,9.10
2019-03-24T21:09:53.150Z,10.63
2019-03-24T21:12:21.596Z,11.93
2019-03-24T21:14:50.034Z,7.10
2019-03-24T21:17:18.542Z,10.97
2019-03-24T21:19:47.214Z,11.30
2019-03-24T21:22:15.664Z,14.13
2019-03-24T21:24:44.253Z,10.30
2019-03-24T21:27:12.728Z,9.93
2019-03-24T21:29:41.484Z,11.53
2019-03-24T21:32:11.245Z,12.47
2019-03-24T21:34:42.694Z,10.20
2019-03-24T21:37:11.388Z,9.27
2019-03-24T21:39:40.264Z,7.30
2019-03-24T21:42:09.155Z,9.47
2019-03-24T21:44:37.578Z,12.60
2019-03-24T21:47:05.958Z,10.87
2019-03-24T21:49:34.717Z,7.57
2019-03-24T21:52:03.117Z,13.57
2019-03-24T21:54:31.501Z,8.17
2019-03-24T21:56:59.918Z,5.33
2019-03-24T21:59:28.362Z,11.77
2019-03-24T22:01:56.811Z,8.50
2019-03-24T22:04:25.342Z,6.87
2019-03-24T22:06:53.847Z,8.07
2019-03-24T22:09:22.635Z,8.03
2019-03-24T22:11:51.116Z,10.37
2019-03-24T22:14:19.514Z,8.23
2019-03-24T22:16:47.928Z,8.87
2019-03-24T22:19:16.671Z,10.70
2019-03-24T22:21:45.347Z,10.60
2019-03-24T22:24:13.762Z,7.30
2019-03-24T22:26:42.338Z,11.67
2019-03-24T22:29:11.015Z,10.03
2019-03-24T22:31:40.904Z,6.83
2019-03-24T22:34:09.413Z,6.13
2019-03-24T22:36:38.309Z,6.00
2019-03-24T22:39:08.184Z,3.63
2019-03-24T22:41:37.016Z,6.70
2019-03-24T22:44:05.821Z,4.83
2019-03-24T22:46:34.327Z,8.43
2019-03-24T22:49:02.789Z,5.70
2019-03-24T22:51:31.226Z,12.63
2019-03-24T22:54:03.428Z,8.60
2019-03-24T22:56:29.836Z,8.27
2019-03-24T22:58:58.321Z,8.07
2019-03-24T23:01:27.140Z,7.30
2019-03-24T23:03:55.673Z,4.43
2019-03-24T23:06:24.324Z,8.07
2019-03-24T23:08:53.155Z,7.97
2019-03-24T23:11:21.669Z,5.50
2019-03-24T23:13:50.339Z,3.13
2019-03-24T23:16:18.816Z,7.33
2019-03-24T23:18:47.280Z,5.40
2019-03-24T23:21:15.707Z,5.57
2019-03-24T23:23:44.178Z,10.57
2019-03-24T23:26:12.606Z,6.30
2019-03-24T23:28:41.071Z,7.83
2019-03-24T23:31:09.469Z,5.70
2019-03-24T23:33:37.935Z,8.63
2019-03-24T23:36:06.965Z,3.63
2019-03-24T23:38:35.653Z,4.40
2019-03-24T23:41:05.157Z,10.60
2019-03-24T23:43:33.572Z,4.73
2019-03-24T23:46:02.071Z,9.27
2019-03-24T23:48:30.566Z,6.97
2019-03-24T23:50:59.331Z,10.27
2019-03-24T23:53:27.732Z,4.67
2019-03-24T23:55:56.788Z,6.20
2019-03-24T23:58:25.480Z,11.77
